Time;durP1;ratioP1;P1;durP2;ratioP2;P2;SDS_P1;SDS_P2;PMS_P1;PMS_P2;Temp;Humidity;BMP_temperature;BMP_pressure;BME280_temperature;BME280_humidity;BME280_pressure;Samples;Min_cycle;Max_cycle;Signal;HPM_P1;HPM_P2
2023/07/05 00:01:56;;;;;;;2.97;1.30;;;;;;;;;;5024364;28;20387;-60
2023/07/05 00:04:24;;;;;;;3.05;1.42;;;;;;;;;;5045627;28;20052;-59
2023/07/05 00:06:52;;;;;;;3.15;1.45;;;;;;;;;;5036523;28;20388;-60
2023/07/05 00:09:19;;;;;;;4.53;1.88;;;;;;;;;;5032434;28;20057;-60
2023/07/05 00:11:47;;;;;;;3.55;1.48;;;;;;;;;;5032933;28;20049;-61
2023/07/05 00:14:14;;;;;;;3.63;1.50;;;;;;;;;;5032631;28;20049;-60
2023/07/05 00:16:41;;;;;;;3.13;1.60;;;;;;;;;;5030238;28;20411;-58
2023/07/05 00:19:08;;;;;;;2.90;1.42;;;;;;;;;;5012878;28;20057;-61
2023/07/05 00:21:36;;;;;;;2.88;1.45;;;;;;;;;;5012686;28;20157;-59
2023/07/05 00:24:03;;;;;;;3.17;1.65;;;;;;;;;;5012528;28;20057;-59
2023/07/05 00:26:30;;;;;;;3.03;1.52;;;;;;;;;;5029046;28;20061;-60
2023/07/05 00:28:57;;;;;;;2.90;1.35;;;;;;;;;;5024177;28;20083;-57
2023/07/05 00:31:24;;;;;;;3.05;1.38;;;;;;;;;;5032354;28;20111;-60
2023/07/05 00:33:51;;;;;;;2.80;1.52;;;;;;;;;;5032283;28;20144;-58
2023/07/05 00:36:17;;;;;;;3.10;1.40;;;;;;;;;;5032017;28;20062;-61
2023/07/05 00:38:46;;;;;;;3.25;1.48;;;;;;;;;;5023788;28;20053;-62
2023/07/05 00:41:12;;;;;;;2.97;1.48;;;;;;;;;;5032216;28;20054;-59
2023/07/05 00:43:39;;;;;;;2.90;1.55;;;;;;;;;;5032057;28;20111;-59
2023/07/05 00:46:15;;;;;;;2.67;1.60;;;;;;;;;;5031788;28;20103;-60
2023/07/05 00:48:48;;;;;;;2.60;1.52;;;;;;;;;;5023388;28;20041;-60
2023/07/05 00:51:18;;;;;;;2.42;1.40;;;;;;;;;;5031809;28;20463;-60
2023/07/05 00:53:46;;;;;;;;;;;;;;;;;;5031928;28;20116;-59
2023/07/05 00:56:21;;;;;;;3.03;1.25;;;;;;;;;;5031718;28;19967;-60
2023/07/05 00:58:50;;;;;;;4.45;1.40;;;;;;;;;;5026068;28;20462;-58
2023/07/05 01:01:17;;;;;;;2.85;1.60;;;;;;;;;;5019081;28;20046;-59
2023/07/05 01:03:47;;;;;;;2.50;1.45;;;;;;;;;;5027187;28;20452;-57
2023/07/05 01:06:14;;;;;;;3.00;1.40;;;;;;;;;;5051609;28;20045;-59
2023/07/05 01:08:41;;;;;;;3.40;1.50;;;;;;;;;;5049415;28;20462;-60
2023/07/05 01:11:17;;;;;;;2.95;1.45;;;;;;;;;;5018567;28;20477;-60
2023/07/05 01:13:52;;;;;;;3.33;1.40;;;;;;;;;;5029326;28;20486;-57
2023/07/05 01:16:30;;;;;;;2.75;1.35;;;;;;;;;;5031343;28;20068;-58
2023/07/05 01:19:05;;;;;;;2.83;1.40;;;;;;;;;;5031593;28;20061;-59
2023/07/05 01:21:43;;;;;;;3.55;1.65;;;;;;;;;;5028235;28;20073;-61
2023/07/05 01:24:44;;;;;;;4.43;2.00;;;;;;;;;;5031483;28;20156;-58
2023/07/05 01:27:41;;;;;;;4.13;1.42;;;;;;;;;;5031505;28;20052;-57
2023/07/05 01:30:46;;;;;;;2.95;1.40;;;;;;;;;;5017658;28;20118;-58
2023/07/05 01:33:18;;;;;;;2.55;1.38;;;;;;;;;;5011980;28;20053;-59
2023/07/05 01:35:49;;;;;;;2.58;1.50;;;;;;;;;;5030084;28;20497;-60
2023/07/05 01:38:16;;;;;;;2.97;1.45;;;;;;;;;;5020882;28;20057;-59
2023/07/05 01:40:53;;;;;;;3.40;1.70;;;;;;;;;;5019292;28;20046;-58
2023/07/05 01:43:21;;;;;;;3.15;1.40;;;;;;;;;;5011558;28;20057;-59
2023/07/05 01:45:56;;;;;;;3.42;1.30;;;;;;;;;;5021754;28;20061;-57
2023/07/05 01:48:34;;;;;;;2.85;1.50;;;;;;;;;;5030583;28;20049;-59
2023/07/05 01:51:08;;;;;;;2.90;1.50;;;;;;;;;;5026971;28;20530;-56
2023/07/05 01:53:42;;;;;;;2.75;1.58;;;;;;;;;;5011649;28;20100;-58
2023/07/05 01:56:16;;;;;;;3.67;1.60;;;;;;;;;;5011178;28;20058;-58
2023/07/05 01:58:46;;;;;;;3.45;1.60;;;;;;;;;;5012036;28;20068;-58
2023/07/05 02:01:15;;;;;;;2.58;1.42;;;;;;;;;;5023001;28;20068;-60
2023/07/05 02:03:44;;;;;;;3.72;1.40;;;;;;;;;;5038582;28;20405;-61
2023/07/05 02:06:12;;;;;;;3.95;1.50;;;;;;;;;;5048157;28;20053;-59
2023/07/05 02:08:40;;;;;;;2.95;1.30;;;;;;;;;;5034793;28;20053;-58
2023/07/05 02:11:07;;;;;;;3.28;1.67;;;;;;;;;;5028873;28;20136;-60
2023/07/05 02:13:34;;;;;;;3.55;1.95;;;;;;;;;;5033068;28;20144;-60
2023/07/05 02:16:01;;;;;;;5.32;2.88;;;;;;;;;;5034854;28;20495;-60
2023/07/05 02:18:29;;;;;;;4.82;2.80;;;;;;;;;;5034543;28;20119;-62
2023/07/05 02:20:57;;;;;;;5.10;2.70;;;;;;;;;;5033733;28;20065;-60
2023/07/05 02:23:24;;;;;;;6.13;2.90;;;;;;;;;;5014793;28;20058;-60
2023/07/05 02:25:51;;;;;;;6.70;3.75;;;;;;;;;;5014489;28;20053;-60
2023/07/05 02:28:18;;;;;;;5.88;3.05;;;;;;;;;;5014658;28;20108;-60
2023/07/05 02:30:45;;;;;;;5.22;3.00;;;;;;;;;;5031719;28;20059;-60
2023/07/05 02:33:12;;;;;;;5.25;2.78;;;;;;;;;;5026063;28;20057;-60
2023/07/05 02:35:40;;;;;;;4.63;1.90;;;;;;;;;;5033979;28;20119;-61
2023/07/05 02:38:08;;;;;;;4.10;1.90;;;;;;;;;;5034403;28;20111;-56
2023/07/05 02:40:35;;;;;;;2.83;1.70;;;;;;;;;;5034348;28;20053;-60
2023/07/05 02:43:02;;;;;;;4.07;2.13;;;;;;;;;;5025203;28;20763;-58
2023/07/05 02:45:29;;;;;;;4.18;1.73;;;;;;;;;;5024421;28;20076;-59
2023/07/05 02:47:56;;;;;;;2.80;1.58;;;;;;;;;;5034224;28;20507;-57
2023/07/05 02:50:23;;;;;;;3.38;1.65;;;;;;;;;;5033861;28;20049;-58
2023/07/05 02:52:50;;;;;;;2.80;1.63;;;;;;;;;;5028176;28;20046;-58
2023/07/05 02:55:18;;;;;;;3.20;1.60;;;;;;;;;;5031575;28;20127;-59
2023/07/05 02:57:45;;;;;;;3.20;1.63;;;;;;;;;;5033940;28;20049;-61
2023/07/05 03:00:13;;;;;;;3.08;1.58;;;;;;;;;;5032996;28;20491;-57
2023/07/05 03:02:39;;;;;;;3.45;1.90;;;;;;;;;;5032702;28;20072;-60
2023/07/05 03:05:11;;;;;;;3.35;1.58;;;;;;;;;;5038619;28;20092;-60
2023/07/05 03:07:38;;;;;;;3.08;1.80;;;;;;;;;;5033567;28;20049;-60
2023/07/05 03:10:07;;;;;;;3.85;1.80;;;;;;;;;;5033850;28;20049;-61
2023/07/05 03:12:35;;;;;;;2.88;1.50;;;;;;;;;;5033510;28;20058;-61
2023/07/05 03:15:02;;;;;;;3.45;1.88;;;;;;;;;;5024072;28;20115;-61
2023/07/05 03:17:29;;;;;;;4.80;1.90;;;;;;;;;;5013555;28;20068;-59
2023/07/05 03:19:57;;;;;;;3.42;1.60;;;;;;;;;;5013678;28;20053;-60
2023/07/05 03:22:24;;;;;;;3.47;1.73;;;;;;;;;;5014174;28;20451;-60
2023/07/05 03:24:51;;;;;;;3.45;1.70;;;;;;;;;;5024322;28;20093;-59
2023/07/05 03:27:18;;;;;;;4.22;1.80;;;;;;;;;;5032790;28;20099;-60
2023/07/05 03:29:47;;;;;;;3.35;1.73;;;;;;;;;;5032830;28;20049;-59
2023/07/05 03:32:14;;;;;;;4.90;2.05;;;;;;;;;;5033099;28;20099;-59
2023/07/05 03:34:41;;;;;;;3.28;1.75;;;;;;;;;;5032654;28;20049;-58
2023/07/05 03:37:08;;;;;;;4.38;1.95;;;;;;;;;;5033127;28;20057;-56
2023/07/05 03:39:34;;;;;;;3.25;1.77;;;;;;;;;;5028341;28;20041;-61
2023/07/05 03:42:02;;;;;;;4.50;2.20;;;;;;;;;;5032697;28;20060;-58
2023/07/05 03:44:29;;;;;;;3.33;1.90;;;;;;;;;;5032612;28;20136;-61
2023/07/05 03:46:57;;;;;;;4.10;1.90;;;;;;;;;;5033016;28;20054;-58
2023/07/05 03:49:24;;;;;;;3.70;1.70;;;;;;;;;;5032837;28;20072;-61
2023/07/05 03:51:51;;;;;;;3.90;1.92;;;;;;;;;;5024734;28;20415;-61
2023/07/05 03:54:18;;;;;;;4.28;1.80;;;;;;;;;;5032549;28;20060;-61
2023/07/05 03:56:45;;;;;;;5.25;2.10;;;;;;;;;;5032790;28;20053;-57
2023/07/05 03:59:12;;;;;;;4.10;2.28;;;;;;;;;;5031149;28;20056;-60
2023/07/05 04:01:38;;;;;;;4.47;2.30;;;;;;;;;;5019114;28;20054;-59
2023/07/05 04:04:07;;;;;;;4.28;1.95;;;;;;;;;;5029036;28;20049;-61
2023/07/05 04:06:34;;;;;;;2.65;1.63;;;;;;;;;;5032602;28;20056;-60
2023/07/05 04:09:01;;;;;;;4.07;1.83;;;;;;;;;;5032454;28;20091;-61
2023/07/05 04:11:29;;;;;;;3.67;2.10;;;;;;;;;;5024388;28;20054;-61
2023/07/05 04:13:57;;;;;;;3.97;2.17;;;;;;;;;;5032806;28;20080;-61
2023/07/05 04:16:25;;;;;;;3.67;1.98;;;;;;;;;;5032569;28;20045;-62
2023/07/05 04:18:54;;;;;;;3.72;1.90;;;;;;;;;;5032345;28;20057;-60
2023/07/05 04:21:23;;;;;;;3.20;1.63;;;;;;;;;;5024035;28;20539;-59
2023/07/05 04:23:50;;;;;;;3.65;2.00;;;;;;;;;;5032517;28;20049;-62
2023/07/05 04:26:19;;;;;;;5.30;2.13;;;;;;;;;;5032211;28;20085;-59
2023/07/05 04:28:46;;;;;;;3.90;2.10;;;;;;;;;;5028428;28;20049;-60
2023/07/05 04:31:17;;;;;;;4.30;2.30;;;;;;;;;;5019491;28;20394;-59
2023/07/05 04:33:44;;;;;;;3.17;1.80;;;;;;;;;;5013147;28;20061;-59
2023/07/05 04:36:11;;;;;;;3.80;1.95;;;;;;;;;;5012225;28;20550;-62
2023/07/05 04:38:39;;;;;;;6.05;2.70;;;;;;;;;;5018712;28;20061;-61
2023/07/05 04:41:06;;;;;;;5.63;2.65;;;;;;;;;;5029511;28;20041;-61
2023/07/05 04:43:33;;;;;;;4.55;2.40;;;;;;;;;;5028639;28;20061;-60
2023/07/05 04:46:00;;;;;;;4.10;2.20;;;;;;;;;;5031976;28;20399;-61
2023/07/05 04:48:30;;;;;;;5.10;2.40;;;;;;;;;;5032299;28;20502;-61
2023/07/05 04:50:58;;;;;;;4.32;2.17;;;;;;;;;;5032258;28;20697;-60
2023/07/05 04:53:26;;;;;;;4.55;2.40;;;;;;;;;;5021200;28;20506;-57
2023/07/05 04:55:56;;;;;;;4.97;2.80;;;;;;;;;;5012066;28;20061;-58
2023/07/05 04:58:23;;;;;;;5.68;2.50;;;;;;;;;;5012670;28;20052;-58
2023/07/05 05:00:50;;;;;;;5.03;2.50;;;;;;;;;;5029706;28;20144;-58
2023/07/05 05:03:19;;;;;;;6.07;2.75;;;;;;;;;;5025820;28;20138;-56
2023/07/05 05:05:49;;;;;;;6.70;2.80;;;;;;;;;;5051471;28;20049;-59
2023/07/05 05:08:16;;;;;;;5.93;2.90;;;;;;;;;;5051648;28;20080;-58
2023/07/05 05:10:43;;;;;;;4.38;2.85;;;;;;;;;;5051647;28;20049;-60
2023/07/05 05:13:11;;;;;;;5.32;2.65;;;;;;;;;;5033135;28;20053;-59
2023/07/05 05:15:39;;;;;;;4.32;2.05;;;;;;;;;;5012111;28;20041;-61
2023/07/05 05:18:06;;;;;;;4.55;2.35;;;;;;;;;;5012018;28;20050;-61
2023/07/05 05:20:33;;;;;;;3.60;2.00;;;;;;;;;;5011739;28;20046;-61
2023/07/05 05:25:28;;;;;;;4.97;1.70;;;;;;;;;;5043151;22;20046;-81
2023/07/05 05:27:55;;;;;;;3.63;1.67;;;;;;;;;;5028924;28;20465;-81
2023/07/05 05:30:23;;;;;;;3.70;1.88;;;;;;;;;;5038037;28;20052;-80
2023/07/05 05:32:53;;;;;;;5.35;1.67;;;;;;;;;;5035228;28;20072;-81
2023/07/05 05:35:20;;;;;;;4.57;2.00;;;;;;;;;;5036762;28;20129;-80
2023/07/05 05:37:46;;;;;;;4.25;1.80;;;;;;;;;;5036528;28;20374;-80
2023/07/05 05:40:13;;;;;;;6.05;1.95;;;;;;;;;;5038418;28;20491;-80
2023/07/05 05:42:40;;;;;;;3.75;1.90;;;;;;;;;;5047160;28;20069;-76
2023/07/05 05:45:07;;;;;;;4.20;1.90;;;;;;;;;;5059275;28;20045;-79
2023/07/05 05:47:35;;;;;;;4.28;1.90;;;;;;;;;;5041332;28;20108;-79
2023/07/05 05:50:02;;;;;;;4.32;1.80;;;;;;;;;;5037725;28;20052;-79
2023/07/05 05:52:29;;;;;;;5.03;2.00;;;;;;;;;;5038124;28;20076;-80
2023/07/05 05:54:56;;;;;;;4.03;1.70;;;;;;;;;;5038079;28;20132;-80
2023/07/05 05:57:22;;;;;;;4.28;1.85;;;;;;;;;;5038905;28;20041;-80
2023/07/05 05:59:49;;;;;;;3.20;1.63;;;;;;;;;;5038997;28;20546;-80
2023/07/05 06:02:16;;;;;;;3.40;1.65;;;;;;;;;;5039566;28;20088;-80
2023/07/05 06:04:44;;;;;;;6.03;2.30;;;;;;;;;;5027541;28;20041;-80
2023/07/05 06:07:11;;;;;;;4.55;2.10;;;;;;;;;;5039544;28;20052;-80
2023/07/05 06:09:38;;;;;;;4.50;1.65;;;;;;;;;;5039581;28;20141;-80
2023/07/05 06:12:08;;;;;;;4.82;1.83;;;;;;;;;;5039522;28;20076;-80
2023/07/05 06:14:35;;;;;;;4.55;2.17;;;;;;;;;;5039434;28;20046;-79
2023/07/05 06:17:01;;;;;;;3.80;1.70;;;;;;;;;;5038691;28;20107;-80
2023/07/05 06:19:28;;;;;;;4.45;1.63;;;;;;;;;;5039068;28;20049;-81
2023/07/05 06:21:56;;;;;;;4.85;1.88;;;;;;;;;;5039522;28;20073;-80
2023/07/05 06:24:23;;;;;;;3.88;1.65;;;;;;;;;;5039253;28;20042;-80
2023/07/05 06:26:49;;;;;;;3.20;1.55;;;;;;;;;;5038885;28;20049;-80
2023/07/05 06:29:16;;;;;;;4.20;1.70;;;;;;;;;;5039283;28;20048;-80
2023/07/05 06:31:43;;;;;;;3.58;1.75;;;;;;;;;;5039187;28;20132;-79
2023/07/05 06:34:09;;;;;;;3.28;2.00;;;;;;;;;;5038888;28;20045;-79
2023/07/05 06:36:36;;;;;;;4.07;2.10;;;;;;;;;;5039507;28;20080;-80
2023/07/05 06:39:04;;;;;;;3.85;1.77;;;;;;;;;;5038948;28;20049;-79
2023/07/05 06:41:31;;;;;;;3.85;1.70;;;;;;;;;;5037653;28;20049;-79
2023/07/05 06:43:57;;;;;;;3.72;1.85;;;;;;;;;;5036735;28;20085;-79
2023/07/05 06:46:24;;;;;;;2.80;1.58;;;;;;;;;;5037360;28;20476;-79
2023/07/05 06:48:51;;;;;;;3.85;1.70;;;;;;;;;;5037602;28;20054;-78
2023/07/05 06:51:19;;;;;;;3.55;1.70;;;;;;;;;;5035845;28;20069;-77
2023/07/05 06:53:45;;;;;;;3.85;2.03;;;;;;;;;;5035949;28;20080;-79
2023/07/05 06:56:13;;;;;;;4.55;2.10;;;;;;;;;;5038220;28;20121;-79
2023/07/05 06:58:41;;;;;;;3.55;1.80;;;;;;;;;;5038432;28;20453;-79
2023/07/05 07:01:07;;;;;;;4.00;2.10;;;;;;;;;;5038745;28;20176;-80
2023/07/05 07:03:34;;;;;;;3.65;1.75;;;;;;;;;;5039641;28;20081;-80
2023/07/05 07:06:01;;;;;;;3.55;1.80;;;;;;;;;;5041242;28;20081;-80
2023/07/05 07:08:30;;;;;;;4.55;2.28;;;;;;;;;;5036366;28;20050;-80
2023/07/05 07:10:59;;;;;;;4.53;2.08;;;;;;;;;;5040394;28;20088;-80
2023/07/05 07:13:27;;;;;;;4.97;2.00;;;;;;;;;;5041077;28;20077;-80
2023/07/05 07:16:01;;;;;;;3.45;1.80;;;;;;;;;;5039830;28;20141;-80
2023/07/05 07:18:28;;;;;;;4.88;1.80;;;;;;;;;;5042211;28;20079;-80
2023/07/05 07:20:59;;;;;;;4.20;1.90;;;;;;;;;;5045323;28;20041;-81
2023/07/05 07:23:26;;;;;;;5.05;2.35;;;;;;;;;;5052142;28;20041;-80
2023/07/05 07:26:01;;;;;;;4.13;2.30;;;;;;;;;;5050516;28;20064;-80
2023/07/05 07:28:30;;;;;;;3.80;2.20;;;;;;;;;;5039270;28;20135;-81
2023/07/05 07:31:00;;;;;;;4.40;2.08;;;;;;;;;;5039447;28;20105;-81
2023/07/05 07:33:27;;;;;;;3.58;1.90;;;;;;;;;;5041012;28;20128;-81
2023/07/05 07:35:54;;;;;;;3.80;2.13;;;;;;;;;;5035668;28;20100;-81
2023/07/05 07:38:20;;;;;;;5.07;2.45;;;;;;;;;;5036629;28;20124;-82
2023/07/05 07:40:47;;;;;;;2.60;1.50;;;;;;;;;;5037976;28;20794;-81
2023/07/05 07:43:14;;;;;;;3.75;2.10;;;;;;;;;;5037526;28;20045;-81
2023/07/05 07:45:42;;;;;;;3.88;1.55;;;;;;;;;;5038004;28;20046;-81
2023/07/05 07:48:08;;;;;;;4.57;1.80;;;;;;;;;;5037560;28;20108;-81
2023/07/05 07:50:35;;;;;;;4.15;1.77;;;;;;;;;;5037211;28;20106;-80
2023/07/05 07:53:02;;;;;;;4.35;2.05;;;;;;;;;;5037462;28;20531;-81
2023/07/05 07:55:30;;;;;;;4.05;1.70;;;;;;;;;;5037665;28;20096;-81
2023/07/05 07:57:57;;;;;;;2.95;1.73;;;;;;;;;;5043389;28;20049;-80
2023/07/05 08:00:24;;;;;;;3.92;1.70;;;;;;;;;;5047409;28;20057;-82
2023/07/05 08:02:52;;;;;;;4.20;1.95;;;;;;;;;;5047551;28;20183;-83
2023/07/05 08:05:19;;;;;;;3.75;1.80;;;;;;;;;;5048269;28;20053;-84
2023/07/05 08:07:52;;;;;;;16.02;7.80;;;;;;;;;;5050812;28;20034;-80
2023/07/05 08:10:20;;;;;;;4.25;1.77;;;;;;;;;;5050276;28;20052;-83
2023/07/05 08:12:53;;;;;;;4.47;1.90;;;;;;;;;;5047498;28;20054;-83
2023/07/05 08:15:19;;;;;;;4.25;1.92;;;;;;;;;;5047466;28;20075;-83
2023/07/05 08:17:46;;;;;;;3.83;2.08;;;;;;;;;;5049028;28;20042;-84
2023/07/05 08:20:15;;;;;;;5.30;2.78;;;;;;;;;;5048615;28;20057;-82
2023/07/05 08:22:41;;;;;;;4.88;2.53;;;;;;;;;;5047896;28;20057;-80
2023/07/05 08:25:09;;;;;;;3.65;2.13;;;;;;;;;;5047048;28;20053;-81
2023/07/05 08:27:35;;;;;;;6.35;2.20;;;;;;;;;;5047837;28;20045;-81
2023/07/05 08:30:02;;;;;;;5.97;2.25;;;;;;;;;;5048386;28;20046;-79
2023/07/05 08:32:29;;;;;;;5.68;2.10;;;;;;;;;;5050353;28;20097;-80
2023/07/05 08:34:56;;;;;;;5.13;2.20;;;;;;;;;;5053936;28;20049;-81
2023/07/05 08:37:24;;;;;;;4.63;2.13;;;;;;;;;;5054131;28;20068;-81
2023/07/05 08:39:51;;;;;;;5.03;1.90;;;;;;;;;;5053741;28;20045;-80
2023/07/05 08:42:34;;;;;;;4.72;2.58;;;;;;;;;;5053365;28;20105;-81
2023/07/05 08:45:15;;;;;;;5.38;2.30;;;;;;;;;;5053625;28;20068;-82
2023/07/05 08:47:47;;;;;;;4.38;2.33;;;;;;;;;;5053508;28;20045;-81
2023/07/05 08:50:22;;;;;;;4.90;2.47;;;;;;;;;;5051800;28;20038;-80
2023/07/05 08:52:54;;;;;;;4.45;2.20;;;;;;;;;;5048026;28;20087;-79
2023/07/05 08:55:25;;;;;;;4.68;2.33;;;;;;;;;;5050099;28;20045;-80
2023/07/05 08:57:54;;;;;;;5.25;2.28;;;;;;;;;;5048868;28;20045;-80
2023/07/05 09:00:26;;;;;;;4.88;2.40;;;;;;;;;;5047184;28;20052;-80
2023/07/05 09:02:53;;;;;;;4.55;2.25;;;;;;;;;;5047372;28;20052;-81
2023/07/05 09:05:25;;;;;;;3.97;2.22;;;;;;;;;;5048147;28;20489;-80
2023/07/05 09:08:06;;;;;;;4.75;2.00;;;;;;;;;;5050043;28;20392;-80
2023/07/05 09:10:41;;;;;;;5.10;2.38;;;;;;;;;;5047785;28;20061;-80
2023/07/05 09:13:16;;;;;;;5.13;2.20;;;;;;;;;;5045482;28;20101;-81
2023/07/05 09:15:49;;;;;;;3.47;1.98;;;;;;;;;;5044180;28;20053;-80
2023/07/05 09:18:29;;;;;;;5.22;3.45;;;;;;;;;;5047992;28;20062;-80
2023/07/05 09:21:09;;;;;;;4.22;2.10;;;;;;;;;;5047433;28;20084;-81
2023/07/05 09:23:42;;;;;;;3.13;1.80;;;;;;;;;;5047808;28;20072;-80
2023/07/05 09:26:18;;;;;;;4.25;2.25;;;;;;;;;;5047748;28;20075;-81
2023/07/05 09:28:51;;;;;;;3.95;2.15;;;;;;;;;;5051481;28;20084;-80
2023/07/05 09:31:18;;;;;;;3.97;2.03;;;;;;;;;;5052504;28;20064;-81
2023/07/05 09:33:48;;;;;;;4.22;2.10;;;;;;;;;;5044296;28;20103;-80
2023/07/05 09:36:22;;;;;;;4.00;2.20;;;;;;;;;;5042458;28;20073;-81
2023/07/05 09:38:55;;;;;;;4.63;2.28;;;;;;;;;;5040401;28;20045;-80
2023/07/05 09:41:38;;;;;;;4.03;2.20;;;;;;;;;;5040859;28;20065;-81
2023/07/05 09:44:05;;;;;;;5.78;2.10;;;;;;;;;;5039135;28;20046;-81
2023/07/05 09:46:40;;;;;;;4.30;2.30;;;;;;;;;;5040865;28;20041;-83
2023/07/05 09:49:12;;;;;;;4.22;2.25;;;;;;;;;;5021323;28;20056;-80
2023/07/05 09:51:41;;;;;;;4.75;2.50;;;;;;;;;;5029064;28;20076;-82
2023/07/05 09:54:16;;;;;;;4.17;2.30;;;;;;;;;;5044532;28;20053;-82
2023/07/05 09:56:59;;;;;;;4.63;2.67;;;;;;;;;;5037990;28;20084;-83
2023/07/05 09:59:26;;;;;;;4.07;2.25;;;;;;;;;;5037242;28;20050;-82
2023/07/05 10:01:55;;;;;;;5.03;2.35;;;;;;;;;;5036884;28;20042;-82
2023/07/05 10:04:27;;;;;;;4.95;2.80;;;;;;;;;;5037339;28;20084;-82
2023/07/05 10:06:55;;;;;;;5.75;2.83;;;;;;;;;;5041455;28;20057;-82
2023/07/05 10:09:25;;;;;;;3.83;2.47;;;;;;;;;;5041809;28;20046;-81
2023/07/05 10:11:53;;;;;;;5.60;2.60;;;;;;;;;;5044203;28;20045;-82
2023/07/05 10:14:23;;;;;;;4.32;2.70;;;;;;;;;;5039298;28;20528;-82
2023/07/05 10:16:53;;;;;;;4.53;2.70;;;;;;;;;;5038249;28;20045;-82
2023/07/05 10:19:25;;;;;;;5.53;2.67;;;;;;;;;;5038236;28;20053;-82
2023/07/05 10:21:58;;;;;;;4.32;2.30;;;;;;;;;;5036742;28;20540;-82
2023/07/05 10:24:28;;;;;;;4.07;2.20;;;;;;;;;;5036253;28;20092;-83
2023/07/05 10:27:03;;;;;;;5.00;2.42;;;;;;;;;;5040302;28;20053;-82
2023/07/05 10:29:31;;;;;;;7.07;2.90;;;;;;;;;;5040457;28;20042;-83
2023/07/05 10:32:00;;;;;;;5.25;2.72;;;;;;;;;;5040634;28;20115;-81
2023/07/05 10:34:27;;;;;;;4.35;2.90;;;;;;;;;;5042971;28;20056;-81
2023/07/05 10:36:54;;;;;;;6.15;2.75;;;;;;;;;;5041217;28;20084;-82
2023/07/05 10:39:23;;;;;;;6.57;3.20;;;;;;;;;;5039012;28;20049;-84
2023/07/05 10:41:56;;;;;;;5.93;3.00;;;;;;;;;;5035478;28;20065;-81
2023/07/05 10:44:29;;;;;;;5.00;2.67;;;;;;;;;;5040929;28;20056;-81
2023/07/05 10:46:57;;;;;;;6.53;2.83;;;;;;;;;;5041285;28;20046;-82
2023/07/05 10:49:25;;;;;;;6.68;3.10;;;;;;;;;;5038831;28;20137;-81
2023/07/05 10:51:54;;;;;;;4.55;2.78;;;;;;;;;;5042753;28;20037;-82
2023/07/05 10:54:31;;;;;;;5.82;2.80;;;;;;;;;;5043864;28;20277;-82
2023/07/05 10:57:03;;;;;;;7.22;3.55;;;;;;;;;;5029820;28;20065;-81
2023/07/05 10:59:35;;;;;;;6.20;3.13;;;;;;;;;;5033570;28;20056;-77
2023/07/05 11:02:07;;;;;;;7.53;3.38;;;;;;;;;;5038916;28;20088;-81
2023/07/05 11:04:35;;;;;;;5.40;3.42;;;;;;;;;;5041509;28;20084;-85
2023/07/05 11:07:10;;;;;;;5.10;3.10;;;;;;;;;;5047189;28;20041;-87
2023/07/05 11:09:37;;;;;;;5.55;2.78;;;;;;;;;;5038751;28;20061;-81
2023/07/05 11:12:15;;;;;;;5.85;2.97;;;;;;;;;;5043627;28;20056;-83
2023/07/05 11:14:42;;;;;;;6.43;3.78;;;;;;;;;;5041822;28;20050;-78
2023/07/05 11:17:23;;;;;;;10.85;3.58;;;;;;;;;;5037221;28;20091;-78
2023/07/05 11:19:50;;;;;;;6.40;3.33;;;;;;;;;;5035327;28;20041;-79
2023/07/05 11:22:39;;;;;;;5.80;3.08;;;;;;;;;;5036462;28;20132;-78
2023/07/05 11:25:12;;;;;;;5.68;3.38;;;;;;;;;;5027649;28;20059;-78
2023/07/05 11:27:58;;;;;;;5.85;3.70;;;;;;;;;;5035400;28;20084;-78
2023/07/05 11:30:49;;;;;;;9.68;3.35;;;;;;;;;;5012769;28;20512;-78
2023/07/05 11:33:20;;;;;;;5.90;3.67;;;;;;;;;;5003978;28;20050;-78
2023/07/05 11:35:49;;;;;;;4.97;3.30;;;;;;;;;;5014712;28;20540;-78
2023/07/05 11:38:56;;;;;;;5.43;3.10;;;;;;;;;;5015167;28;20052;-78
2023/07/05 11:41:31;;;;;;;5.43;2.50;;;;;;;;;;5008912;28;20148;-78
2023/07/05 11:44:01;;;;;;;5.85;2.88;;;;;;;;;;5013204;28;20092;-78
2023/07/05 11:46:44;;;;;;;;;;;;;;;;;;5035658;28;20081;-77
2023/07/05 11:49:28;;;;;;;6.70;2.40;;;;;;;;;;5026050;28;19940;-77
2023/07/05 11:51:59;;;;;;;5.32;2.17;;;;;;;;;;5016074;28;20045;-79
2023/07/05 11:54:36;;;;;;;5.53;2.20;;;;;;;;;;5022043;28;20073;-77
2023/07/05 11:57:06;;;;;;;4.30;2.00;;;;;;;;;;5014266;28;20062;-78
2023/07/05 11:59:36;;;;;;;;;;;;;;;;;;5014796;28;20050;-77
2023/07/05 12:02:11;;;;;;;4.10;1.83;;;;;;;;;;5013430;28;19957;-79
2023/07/05 12:04:40;;;;;;;5.28;2.05;;;;;;;;;;5015225;28;20050;-77
2023/07/05 12:07:10;;;;;;;3.80;1.80;;;;;;;;;;5018795;28;20046;-77
2023/07/05 12:09:41;;;;;;;4.88;2.10;;;;;;;;;;5017514;28;20046;-78
2023/07/05 12:12:12;;;;;;;7.18;2.72;;;;;;;;;;5014021;28;20080;-77
2023/07/05 12:14:43;;;;;;;5.18;2.10;;;;;;;;;;5012455;28;20084;-77
2023/07/05 12:17:13;;;;;;;5.45;2.45;;;;;;;;;;5011934;28;20046;-77
2023/07/05 12:19:40;;;;;;;5.03;2.05;;;;;;;;;;5013705;28;20054;-78
2023/07/05 12:22:25;;;;;;;4.97;2.30;;;;;;;;;;5014482;28;20054;-78
2023/07/05 12:24:56;;;;;;;5.20;2.40;;;;;;;;;;5015905;28;20619;-77
2023/07/05 12:27:25;;;;;;;5.43;2.65;;;;;;;;;;5016725;28;20080;-78
2023/07/05 12:29:56;;;;;;;5.53;2.42;;;;;;;;;;5008972;28;20050;-77
2023/07/05 12:32:25;;;;;;;6.05;2.72;;;;;;;;;;5010919;28;20480;-77
2023/07/05 12:35:16;;;;;;;5.20;2.50;;;;;;;;;;5011328;28;20515;-76
2023/07/05 12:37:44;;;;;;;5.15;2.20;;;;;;;;;;5007174;28;20452;-77
2023/07/05 12:40:13;;;;;;;4.60;2.15;;;;;;;;;;5013263;28;20073;-79
2023/07/05 12:42:48;;;;;;;4.35;2.30;;;;;;;;;;5013641;28;20550;-78
2023/07/05 12:45:18;;;;;;;5.88;2.55;;;;;;;;;;5014117;28;20042;-79
2023/07/05 12:47:45;;;;;;;4.80;2.42;;;;;;;;;;5011774;28;20066;-77
2023/07/05 12:50:12;;;;;;;6.07;2.63;;;;;;;;;;5005927;28;20092;-77
2023/07/05 12:52:38;;;;;;;4.88;2.50;;;;;;;;;;5009142;28;20104;-77
2023/07/05 12:55:24;;;;;;;4.72;2.38;;;;;;;;;;5011293;28;20149;-77
2023/07/05 12:57:52;;;;;;;5.40;2.60;;;;;;;;;;5010332;28;20114;-78
2023/07/05 13:00:21;;;;;;;4.57;2.42;;;;;;;;;;5012777;28;20489;-78
2023/07/05 13:02:47;;;;;;;5.38;2.42;;;;;;;;;;5013787;28;20061;-78
2023/07/05 13:05:15;;;;;;;5.32;2.70;;;;;;;;;;5012398;28;20576;-78
2023/07/05 13:07:42;;;;;;;4.95;2.15;;;;;;;;;;5016178;28;20054;-80
2023/07/05 13:10:10;;;;;;;5.40;2.20;;;;;;;;;;5017290;28;20064;-79
2023/07/05 13:12:48;;;;;;;5.50;2.70;;;;;;;;;;5014993;28;20100;-77
2023/07/05 13:15:16;;;;;;;3.72;1.73;;;;;;;;;;5002572;28;20049;-78
2023/07/05 13:17:44;;;;;;;3.88;2.28;;;;;;;;;;5014854;28;20064;-78
2023/07/05 13:20:14;;;;;;;3.83;1.63;;;;;;;;;;5015546;28;20452;-78
2023/07/05 13:22:46;;;;;;;3.90;1.75;;;;;;;;;;5014711;28;20058;-77
2023/07/05 13:25:27;;;;;;;4.38;1.60;;;;;;;;;;5012856;28;20046;-82
2023/07/05 13:27:55;;;;;;;3.88;1.80;;;;;;;;;;5014685;28;20066;-77
2023/07/05 13:30:22;;;;;;;4.88;1.88;;;;;;;;;;5014402;28;20125;-77
2023/07/05 13:32:55;;;;;;;3.63;1.65;;;;;;;;;;5013211;28;20045;-76
2023/07/05 13:35:23;;;;;;;3.42;1.52;;;;;;;;;;5009056;28;20129;-78
2023/07/05 13:37:52;;;;;;;4.40;2.10;;;;;;;;;;5010522;28;20120;-77
2023/07/05 13:40:21;;;;;;;4.60;1.92;;;;;;;;;;5011762;28;20048;-77
2023/07/05 13:42:49;;;;;;;4.43;2.00;;;;;;;;;;5011430;28;20112;-78
2023/07/05 13:45:18;;;;;;;4.40;2.17;;;;;;;;;;5012872;28;20046;-77
2023/07/05 13:47:45;;;;;;;4.53;1.90;;;;;;;;;;5012223;28;20045;-77
2023/07/05 13:50:13;;;;;;;3.90;2.00;;;;;;;;;;5012607;28;20050;-78
2023/07/05 13:52:40;;;;;;;2.85;1.65;;;;;;;;;;5012101;28;20075;-77
2023/07/05 13:55:15;;;;;;;3.83;1.50;;;;;;;;;;5014051;28;20192;-77
2023/07/05 13:57:52;;;;;;;2.97;1.67;;;;;;;;;;5008471;28;20046;-78
2023/07/05 14:00:19;;;;;;;3.22;1.55;;;;;;;;;;5012417;28;20137;-77
2023/07/05 14:02:49;;;;;;;3.75;1.75;;;;;;;;;;5014807;28;20052;-78
2023/07/05 14:05:17;;;;;;;;;;;;;;;;;;5004290;28;20054;-78
2023/07/05 14:07:45;;;;;;;14.18;2.53;;;;;;;;;;5016101;28;20409;-78
2023/07/05 14:10:14;;;;;;;4.03;1.60;;;;;;;;;;5014410;28;20144;-77
2023/07/05 14:12:41;;;;;;;3.85;1.77;;;;;;;;;;5016554;28;20034;-77
2023/07/05 14:15:25;;;;;;;4.07;1.40;;;;;;;;;;5024898;28;20084;-79
2023/07/05 14:17:52;;;;;;;3.20;1.60;;;;;;;;;;5014104;28;20081;-78
2023/07/05 14:20:20;;;;;;;3.03;1.55;;;;;;;;;;5015005;28;20444;-77
2023/07/05 14:22:47;;;;;;;3.47;1.52;;;;;;;;;;5014889;28;20262;-78
2023/07/05 14:25:17;;;;;;;2.80;1.33;;;;;;;;;;5012825;28;20144;-77
2023/07/05 14:27:43;;;;;;;3.45;1.83;;;;;;;;;;5013670;28;20046;-77
2023/07/05 14:30:12;;;;;;;4.15;1.85;;;;;;;;;;5015353;28;20147;-78
2023/07/05 14:32:39;;;;;;;2.80;1.40;;;;;;;;;;5015333;28;20129;-80
2023/07/05 14:35:14;;;;;;;3.45;1.40;;;;;;;;;;5015845;28;20050;-77
2023/07/05 14:37:46;;;;;;;3.45;1.55;;;;;;;;;;5017221;28;20053;-78
2023/07/05 14:40:13;;;;;;;2.35;1.17;;;;;;;;;;5016451;28;20412;-78
2023/07/05 14:42:40;;;;;;;3.00;1.25;;;;;;;;;;5016790;28;20104;-78
2023/07/05 14:45:15;;;;;;;3.83;1.42;;;;;;;;;;5011890;28;20065;-78
2023/07/05 14:47:42;;;;;;;3.60;1.40;;;;;;;;;;5018169;28;20103;-78
2023/07/05 14:50:13;;;;;;;2.83;1.23;;;;;;;;;;5015959;28;20046;-78
2023/07/05 14:52:40;;;;;;;2.45;1.15;;;;;;;;;;5014286;28;20048;-77
2023/07/05 14:55:13;;;;;;;2.85;1.20;;;;;;;;;;5013816;28;20077;-78
2023/07/05 14:57:41;;;;;;;3.50;1.30;;;;;;;;;;5014858;28;20101;-78
2023/07/05 15:00:09;;;;;;;2.65;1.10;;;;;;;;;;5016947;28;20053;-78
2023/07/05 15:02:36;;;;;;;2.53;1.10;;;;;;;;;;5013931;28;20077;-78